Airfield :
LOGIN :

Register | Disclaimer

   EN    FR    IT 

 










Legend :    VFR   Marginal VFR   IFR   Intensive IFR   Very Intensive IFR
Visi :
Ceiling :
>= 8 km
>= 3000ft
5 to 8 km
1000 to 3000 ft
1500m to 5 km
500 to 1000 ft
800 to 1500m
200 to 500 ft
< 800m
< 200 ft
Symbols :   Thunderstorms  Fog  Heavy snow  Heavy precipitations  Wind > 20 kt
SIGMETs :     Misc.  Thunderstorms  Icing  Turbulence  Mountain Waves  Volcanic Ashes







- Airport Elevation : 1043 ft
- IATA code : SLD


LZSL - Sliac

CURRENT METAR :
  • 212230Z 02006KT 9999 SCT022 M00/M05 Q1016

EXPIRED METARs :
  • 212200Z 02006KT 9999 BKN022 00/M05 Q1016
  • 212130Z 03005KT 9999 BKN022 01/M05 Q1016
  • 212100Z 04007KT 9999 OVC022 01/M04 Q1016
  • 212030Z 04006KT 9999 OVC020 01/M04 Q1016
  • 212000Z VRB02KT 9999 OVC016 01/M02 Q1016

TAF TAF LZSL
Valid from the 21 at 21:00 until the 22 at 06:00 UTC


212000Z 2121/2206 VRB02KT 9999 BKN020
TEMPO 2121/2123 7000 -SN FEW012 OVC016
TEMPO 2123/2202 4000 BR OVC010
BECMG 2202/2204 35007KT SCT025 SCT100
No reported NOTAMs for that airfield.



MET'MAP, your aeronautical weather chart ! - Copyright ORBIFLY December 2007 - Disclaimer

ORBIFLY MET'MAP TEAM :

Programming & Development : Alexandra Zaïnal
Concept & Development : Baudouin d'Aumeries
Co-Development & Prog : Marc-Olivier Méhu
Technical & hardware support : Manuel Goepfert

Contact : metmap@orbifly.com




SOURCES & CREDITS :

   NOAA